Аэропорт: Ульяновск-Восточный. Ульяновск

ICAO: UWLW

METAR:
2018/05/20 19:00
UWLW 201900Z 36005MPS 8000 OVC033 14/09 Q1018 R02/CLRD60 NOSIG RMK QFE757
METAR:
2018/05/20 18:24
TAF UWLW 201645Z 2018/2118 34003G08MPS 9999 SCT033 
      TEMPO 2018/2118 01010MPS